sensor_id;sensor_type;location;lat;lon;timestamp;P1;durP1;ratioP1;P2;durP2;ratioP2
29344;SDS011;16339;48.748;2.222;2023-07-16T00:00:32;24.30;;;4.93;;
29344;SDS011;16339;48.748;2.222;2023-07-16T00:03:01;11.27;;;4.60;;
29344;SDS011;16339;48.748;2.222;2023-07-16T00:05:30;11.43;;;4.63;;
29344;SDS011;16339;48.748;2.222;2023-07-16T00:07:58;18.13;;;5.18;;
29344;SDS011;16339;48.748;2.222;2023-07-16T00:10:27;14.07;;;5.10;;
29344;SDS011;16339;48.748;2.222;2023-07-16T00:12:59;16.08;;;5.35;;
29344;SDS011;16339;48.748;2.222;2023-07-16T00:18:03;16.33;;;5.57;;
29344;SDS011;16339;48.748;2.222;2023-07-16T00:20:31;16.92;;;5.55;;
29344;SDS011;16339;48.748;2.222;2023-07-16T00:23:00;16.77;;;5.35;;
29344;SDS011;16339;48.748;2.222;2023-07-16T00:25:29;21.88;;;5.25;;
29344;SDS011;16339;48.748;2.222;2023-07-16T00:28:00;20.05;;;5.05;;
29344;SDS011;16339;48.748;2.222;2023-07-16T00:32:57;18.30;;;6.07;;
29344;SDS011;16339;48.748;2.222;2023-07-16T00:35:26;15.85;;;5.43;;
29344;SDS011;16339;48.748;2.222;2023-07-16T00:37:55;14.32;;;5.45;;
29344;SDS011;16339;48.748;2.222;2023-07-16T00:40:23;15.45;;;5.50;;
29344;SDS011;16339;48.748;2.222;2023-07-16T00:42:52;24.67;;;6.78;;
29344;SDS011;16339;48.748;2.222;2023-07-16T00:45:23;14.75;;;5.78;;
29344;SDS011;16339;48.748;2.222;2023-07-16T00:47:53;18.95;;;5.43;;
29344;SDS011;16339;48.748;2.222;2023-07-16T00:50:22;20.80;;;4.78;;
29344;SDS011;16339;48.748;2.222;2023-07-16T00:52:50;15.80;;;5.88;;
29344;SDS011;16339;48.748;2.222;2023-07-16T00:55:19;20.92;;;5.70;;
29344;SDS011;16339;48.748;2.222;2023-07-16T00:57:48;15.00;;;6.15;;
29344;SDS011;16339;48.748;2.222;2023-07-16T01:00:17;22.10;;;6.07;;
29344;SDS011;16339;48.748;2.222;2023-07-16T01:02:48;13.00;;;5.72;;
29344;SDS011;16339;48.748;2.222;2023-07-16T01:07:53;14.15;;;5.47;;
29344;SDS011;16339;48.748;2.222;2023-07-16T01:10:26;17.02;;;5.90;;
29344;SDS011;16339;48.748;2.222;2023-07-16T01:12:55;21.95;;;5.47;;
29344;SDS011;16339;48.748;2.222;2023-07-16T01:15:25;19.35;;;6.20;;
29344;SDS011;16339;48.748;2.222;2023-07-16T01:17:56;18.08;;;6.15;;
29344;SDS011;16339;48.748;2.222;2023-07-16T01:23:01;21.90;;;6.85;;
29344;SDS011;16339;48.748;2.222;2023-07-16T01:26:05;15.73;;;6.53;;
29344;SDS011;16339;48.748;2.222;2023-07-16T01:28:53;15.75;;;5.82;;
29344;SDS011;16339;48.748;2.222;2023-07-16T01:31:39;16.15;;;6.65;;
29344;SDS011;16339;48.748;2.222;2023-07-16T01:34:09;16.85;;;6.85;;
29344;SDS011;16339;48.748;2.222;2023-07-16T01:36:39;16.98;;;6.05;;
29344;SDS011;16339;48.748;2.222;2023-07-16T01:39:08;20.25;;;6.97;;
29344;SDS011;16339;48.748;2.222;2023-07-16T01:41:37;21.15;;;7.35;;
29344;SDS011;16339;48.748;2.222;2023-07-16T01:44:05;25.88;;;6.88;;
29344;SDS011;16339;48.748;2.222;2023-07-16T01:46:37;18.15;;;6.47;;
29344;SDS011;16339;48.748;2.222;2023-07-16T01:51:34;20.33;;;6.50;;
29344;SDS011;16339;48.748;2.222;2023-07-16T01:54:05;24.67;;;6.45;;
29344;SDS011;16339;48.748;2.222;2023-07-16T01:56:34;20.42;;;6.72;;
29344;SDS011;16339;48.748;2.222;2023-07-16T01:59:03;21.98;;;6.60;;
29344;SDS011;16339;48.748;2.222;2023-07-16T02:01:31;20.63;;;6.40;;
29344;SDS011;16339;48.748;2.222;2023-07-16T02:04:03;27.35;;;6.30;;
29344;SDS011;16339;48.748;2.222;2023-07-16T02:06:31;18.02;;;5.95;;
29344;SDS011;16339;48.748;2.222;2023-07-16T02:09:00;27.10;;;7.32;;
29344;SDS011;16339;48.748;2.222;2023-07-16T02:11:29;16.45;;;6.82;;
29344;SDS011;16339;48.748;2.222;2023-07-16T02:13:58;14.20;;;6.43;;
29344;SDS011;16339;48.748;2.222;2023-07-16T02:16:26;28.92;;;6.53;;
29344;SDS011;16339;48.748;2.222;2023-07-16T02:18:55;22.55;;;6.70;;
29344;SDS011;16339;48.748;2.222;2023-07-16T02:21:26;21.20;;;6.18;;
29344;SDS011;16339;48.748;2.222;2023-07-16T02:23:55;24.77;;;6.55;;
29344;SDS011;16339;48.748;2.222;2023-07-16T02:26:23;18.02;;;6.05;;
29344;SDS011;16339;48.748;2.222;2023-07-16T02:28:52;17.60;;;5.88;;
29344;SDS011;16339;48.748;2.222;2023-07-16T02:31:21;20.30;;;6.10;;
29344;SDS011;16339;48.748;2.222;2023-07-16T02:33:49;12.23;;;5.95;;
29344;SDS011;16339;48.748;2.222;2023-07-16T02:36:18;16.10;;;6.25;;
29344;SDS011;16339;48.748;2.222;2023-07-16T02:38:49;14.05;;;5.78;;
29344;SDS011;16339;48.748;2.222;2023-07-16T02:43:46;23.23;;;6.03;;
29344;SDS011;16339;48.748;2.222;2023-07-16T02:46:15;19.73;;;6.05;;
29344;SDS011;16339;48.748;2.222;2023-07-16T02:48:44;22.75;;;6.03;;
29344;SDS011;16339;48.748;2.222;2023-07-16T02:51:12;20.85;;;5.85;;
29344;SDS011;16339;48.748;2.222;2023-07-16T02:53:41;22.15;;;6.07;;
29344;SDS011;16339;48.748;2.222;2023-07-16T02:56:12;20.48;;;5.90;;
29344;SDS011;16339;48.748;2.222;2023-07-16T02:58:41;20.27;;;6.60;;
29344;SDS011;16339;48.748;2.222;2023-07-16T03:01:10;21.13;;;6.22;;
29344;SDS011;16339;48.748;2.222;2023-07-16T03:03:40;18.42;;;6.40;;
29344;SDS011;16339;48.748;2.222;2023-07-16T03:06:08;14.52;;;5.68;;
29344;SDS011;16339;48.748;2.222;2023-07-16T03:08:37;20.17;;;6.18;;
29344;SDS011;16339;48.748;2.222;2023-07-16T03:11:06;19.17;;;5.95;;
29344;SDS011;16339;48.748;2.222;2023-07-16T03:13:37;21.55;;;6.60;;
29344;SDS011;16339;48.748;2.222;2023-07-16T03:18:34;19.98;;;6.03;;
29344;SDS011;16339;48.748;2.222;2023-07-16T03:21:03;24.55;;;6.32;;
29344;SDS011;16339;48.748;2.222;2023-07-16T03:23:31;22.55;;;6.55;;
29344;SDS011;16339;48.748;2.222;2023-07-16T03:26:00;25.45;;;7.10;;
29344;SDS011;16339;48.748;2.222;2023-07-16T03:28:29;19.95;;;5.75;;
29344;SDS011;16339;48.748;2.222;2023-07-16T03:31:03;20.73;;;5.90;;
29344;SDS011;16339;48.748;2.222;2023-07-16T03:36:00;17.17;;;6.40;;
29344;SDS011;16339;48.748;2.222;2023-07-16T03:38:31;17.23;;;6.15;;
29344;SDS011;16339;48.748;2.222;2023-07-16T03:40:59;20.20;;;6.22;;
29344;SDS011;16339;48.748;2.222;2023-07-16T03:43:28;22.40;;;6.22;;
29344;SDS011;16339;48.748;2.222;2023-07-16T03:45:57;13.95;;;5.68;;
29344;SDS011;16339;48.748;2.222;2023-07-16T03:48:28;22.25;;;6.25;;
29344;SDS011;16339;48.748;2.222;2023-07-16T03:53:25;16.83;;;6.38;;
29344;SDS011;16339;48.748;2.222;2023-07-16T03:55:54;17.50;;;5.50;;
29344;SDS011;16339;48.748;2.222;2023-07-16T03:58:22;15.88;;;5.97;;
29344;SDS011;16339;48.748;2.222;2023-07-16T04:00:53;26.05;;;6.57;;
29344;SDS011;16339;48.748;2.222;2023-07-16T04:03:21;22.83;;;6.40;;
29344;SDS011;16339;48.748;2.222;2023-07-16T04:05:52;21.85;;;6.65;;
29344;SDS011;16339;48.748;2.222;2023-07-16T04:08:31;22.70;;;6.55;;
29344;SDS011;16339;48.748;2.222;2023-07-16T04:11:00;15.18;;;6.28;;
29344;SDS011;16339;48.748;2.222;2023-07-16T04:13:29;17.80;;;6.05;;
29344;SDS011;16339;48.748;2.222;2023-07-16T04:15:59;17.30;;;6.25;;
29344;SDS011;16339;48.748;2.222;2023-07-16T04:18:27;21.00;;;6.78;;
29344;SDS011;16339;48.748;2.222;2023-07-16T04:20:59;21.30;;;5.82;;
29344;SDS011;16339;48.748;2.222;2023-07-16T04:23:27;19.25;;;6.82;;
29344;SDS011;16339;48.748;2.222;2023-07-16T04:25:56;25.98;;;6.85;;
29344;SDS011;16339;48.748;2.222;2023-07-16T04:28:25;20.27;;;6.75;;
29344;SDS011;16339;48.748;2.222;2023-07-16T04:30:53;21.50;;;6.15;;
29344;SDS011;16339;48.748;2.222;2023-07-16T04:33:22;21.50;;;7.00;;
29344;SDS011;16339;48.748;2.222;2023-07-16T04:35:51;23.42;;;6.35;;
29344;SDS011;16339;48.748;2.222;2023-07-16T04:38:22;15.30;;;6.28;;
29344;SDS011;16339;48.748;2.222;2023-07-16T04:40:51;20.42;;;6.45;;
29344;SDS011;16339;48.748;2.222;2023-07-16T04:43:20;20.20;;;6.22;;
29344;SDS011;16339;48.748;2.222;2023-07-16T04:45:48;20.50;;;5.97;;
29344;SDS011;16339;48.748;2.222;2023-07-16T04:48:17;21.65;;;6.18;;
29344;SDS011;16339;48.748;2.222;2023-07-16T04:50:46;18.27;;;5.65;;
29344;SDS011;16339;48.748;2.222;2023-07-16T04:53:15;20.33;;;5.53;;
29344;SDS011;16339;48.748;2.222;2023-07-16T04:55:46;14.25;;;6.05;;
29344;SDS011;16339;48.748;2.222;2023-07-16T05:00:43;19.83;;;6.10;;
29344;SDS011;16339;48.748;2.222;2023-07-16T05:03:12;27.00;;;12.43;;
29344;SDS011;16339;48.748;2.222;2023-07-16T05:05:41;27.42;;;7.68;;
29344;SDS011;16339;48.748;2.222;2023-07-16T05:08:10;24.83;;;6.22;;
29344;SDS011;16339;48.748;2.222;2023-07-16T05:10:38;32.30;;;6.28;;
29344;SDS011;16339;48.748;2.222;2023-07-16T05:13:10;22.90;;;6.70;;
29344;SDS011;16339;48.748;2.222;2023-07-16T05:15:42;16.55;;;6.85;;
29344;SDS011;16339;48.748;2.222;2023-07-16T05:20:40;29.05;;;7.60;;
29344;SDS011;16339;48.748;2.222;2023-07-16T05:23:11;19.25;;;7.05;;
29344;SDS011;16339;48.748;2.222;2023-07-16T05:25:44;27.08;;;7.40;;
29344;SDS011;16339;48.748;2.222;2023-07-16T05:28:17;24.55;;;7.07;;
29344;SDS011;16339;48.748;2.222;2023-07-16T05:30:46;27.17;;;7.70;;
29344;SDS011;16339;48.748;2.222;2023-07-16T05:33:15;24.17;;;7.38;;
29344;SDS011;16339;48.748;2.222;2023-07-16T05:35:43;22.42;;;7.82;;
29344;SDS011;16339;48.748;2.222;2023-07-16T05:38:17;22.70;;;7.18;;
29344;SDS011;16339;48.748;2.222;2023-07-16T05:40:46;22.45;;;7.85;;
29344;SDS011;16339;48.748;2.222;2023-07-16T05:43:17;21.00;;;7.82;;
29344;SDS011;16339;48.748;2.222;2023-07-16T05:45:46;15.77;;;7.45;;
29344;SDS011;16339;48.748;2.222;2023-07-16T05:48:16;30.27;;;8.30;;
29344;SDS011;16339;48.748;2.222;2023-07-16T05:50:44;24.35;;;7.95;;
29344;SDS011;16339;48.748;2.222;2023-07-16T05:53:13;23.25;;;7.32;;
29344;SDS011;16339;48.748;2.222;2023-07-16T05:55:42;21.40;;;7.90;;
29344;SDS011;16339;48.748;2.222;2023-07-16T05:58:10;21.70;;;6.65;;
29344;SDS011;16339;48.748;2.222;2023-07-16T06:00:42;25.35;;;7.88;;
29344;SDS011;16339;48.748;2.222;2023-07-16T06:03:13;20.90;;;7.28;;
29344;SDS011;16339;48.748;2.222;2023-07-16T06:05:42;16.88;;;6.90;;
29344;SDS011;16339;48.748;2.222;2023-07-16T06:08:10;23.70;;;8.23;;
29344;SDS011;16339;48.748;2.222;2023-07-16T06:10:39;36.42;;;8.20;;
29344;SDS011;16339;48.748;2.222;2023-07-16T06:13:08;23.75;;;7.85;;
29344;SDS011;16339;48.748;2.222;2023-07-16T06:15:37;25.88;;;8.18;;
29344;SDS011;16339;48.748;2.222;2023-07-16T06:18:08;28.08;;;8.50;;
29344;SDS011;16339;48.748;2.222;2023-07-16T06:23:05;25.08;;;8.25;;
29344;SDS011;16339;48.748;2.222;2023-07-16T06:25:36;28.95;;;8.15;;
29344;SDS011;16339;48.748;2.222;2023-07-16T06:28:05;33.65;;;8.30;;
29344;SDS011;16339;48.748;2.222;2023-07-16T06:30:34;26.38;;;8.10;;
29344;SDS011;16339;48.748;2.222;2023-07-16T06:33:03;29.45;;;8.30;;
29344;SDS011;16339;48.748;2.222;2023-07-16T06:35:34;42.05;;;8.73;;
29344;SDS011;16339;48.748;2.222;2023-07-16T06:38:03;27.45;;;7.97;;
29344;SDS011;16339;48.748;2.222;2023-07-16T06:40:32;25.30;;;8.38;;
29344;SDS011;16339;48.748;2.222;2023-07-16T06:43:00;36.83;;;8.30;;
29344;SDS011;16339;48.748;2.222;2023-07-16T06:45:29;36.78;;;7.95;;
29344;SDS011;16339;48.748;2.222;2023-07-16T06:47:58;23.90;;;7.78;;
29344;SDS011;16339;48.748;2.222;2023-07-16T06:50:26;25.23;;;8.25;;
29344;SDS011;16339;48.748;2.222;2023-07-16T06:52:58;27.58;;;7.88;;
29344;SDS011;16339;48.748;2.222;2023-07-16T06:57:55;32.05;;;7.57;;
29344;SDS011;16339;48.748;2.222;2023-07-16T07:00:25;28.85;;;7.80;;
29344;SDS011;16339;48.748;2.222;2023-07-16T07:02:53;30.73;;;7.60;;
29344;SDS011;16339;48.748;2.222;2023-07-16T07:05:22;27.33;;;7.70;;
29344;SDS011;16339;48.748;2.222;2023-07-16T07:07:51;33.30;;;7.85;;
29344;SDS011;16339;48.748;2.222;2023-07-16T07:10:22;30.05;;;7.70;;
29344;SDS011;16339;48.748;2.222;2023-07-16T07:12:51;29.98;;;7.45;;
29344;SDS011;16339;48.748;2.222;2023-07-16T07:15:19;34.00;;;7.28;;
29344;SDS011;16339;48.748;2.222;2023-07-16T07:17:48;24.77;;;7.65;;
29344;SDS011;16339;48.748;2.222;2023-07-16T07:20:17;21.17;;;7.40;;
29344;SDS011;16339;48.748;2.222;2023-07-16T07:22:46;23.25;;;7.10;;
29344;SDS011;16339;48.748;2.222;2023-07-16T07:25:14;24.45;;;7.22;;
29344;SDS011;16339;48.748;2.222;2023-07-16T07:27:46;24.30;;;6.95;;
29344;SDS011;16339;48.748;2.222;2023-07-16T07:30:14;20.50;;;7.00;;
29344;SDS011;16339;48.748;2.222;2023-07-16T07:32:43;19.30;;;7.30;;
29344;SDS011;16339;48.748;2.222;2023-07-16T07:35:13;25.77;;;7.03;;
29344;SDS011;16339;48.748;2.222;2023-07-16T07:37:41;33.38;;;7.82;;
29344;SDS011;16339;48.748;2.222;2023-07-16T07:40:10;19.40;;;7.82;;
29344;SDS011;16339;48.748;2.222;2023-07-16T07:42:42;29.65;;;7.82;;
29344;SDS011;16339;48.748;2.222;2023-07-16T07:45:13;24.38;;;7.15;;
29344;SDS011;16339;48.748;2.222;2023-07-16T07:50:10;19.27;;;7.05;;
29344;SDS011;16339;48.748;2.222;2023-07-16T07:52:39;21.23;;;6.88;;
29344;SDS011;16339;48.748;2.222;2023-07-16T07:55:08;27.02;;;7.15;;
29344;SDS011;16339;48.748;2.222;2023-07-16T07:57:37;25.52;;;7.47;;
29344;SDS011;16339;48.748;2.222;2023-07-16T08:00:06;23.63;;;7.43;;
29344;SDS011;16339;48.748;2.222;2023-07-16T08:02:40;19.80;;;7.45;;
29344;SDS011;16339;48.748;2.222;2023-07-16T08:05:08;22.17;;;6.97;;
29344;SDS011;16339;48.748;2.222;2023-07-16T08:07:37;17.63;;;6.90;;
29344;SDS011;16339;48.748;2.222;2023-07-16T08:10:06;26.30;;;7.00;;
29344;SDS011;16339;48.748;2.222;2023-07-16T08:12:35;24.77;;;6.47;;
29344;SDS011;16339;48.748;2.222;2023-07-16T08:15:05;23.35;;;6.75;;
29344;SDS011;16339;48.748;2.222;2023-07-16T08:17:41;25.15;;;7.07;;
29344;SDS011;16339;48.748;2.222;2023-07-16T08:20:13;30.70;;;6.93;;
29344;SDS011;16339;48.748;2.222;2023-07-16T08:22:44;23.85;;;6.50;;
29344;SDS011;16339;48.748;2.222;2023-07-16T08:25:12;30.45;;;6.88;;
29344;SDS011;16339;48.748;2.222;2023-07-16T08:27:41;23.77;;;6.72;;
29344;SDS011;16339;48.748;2.222;2023-07-16T08:30:10;21.08;;;6.43;;
29344;SDS011;16339;48.748;2.222;2023-07-16T08:32:41;23.15;;;6.75;;
29344;SDS011;16339;48.748;2.222;2023-07-16T08:37:41;23.60;;;6.30;;
29344;SDS011;16339;48.748;2.222;2023-07-16T08:40:10;19.02;;;6.30;;
29344;SDS011;16339;48.748;2.222;2023-07-16T08:42:40;29.60;;;6.38;;
29344;SDS011;16339;48.748;2.222;2023-07-16T08:45:11;24.23;;;5.85;;
29344;SDS011;16339;48.748;2.222;2023-07-16T08:47:44;20.42;;;6.22;;
29344;SDS011;16339;48.748;2.222;2023-07-16T08:50:13;19.13;;;6.20;;
29344;SDS011;16339;48.748;2.222;2023-07-16T08:52:43;21.70;;;6.00;;
29344;SDS011;16339;48.748;2.222;2023-07-16T08:55:14;21.10;;;6.03;;
29344;SDS011;16339;48.748;2.222;2023-07-16T08:57:43;25.80;;;5.85;;
29344;SDS011;16339;48.748;2.222;2023-07-16T09:00:15;19.88;;;5.03;;
29344;SDS011;16339;48.748;2.222;2023-07-16T09:02:47;15.02;;;5.50;;
29344;SDS011;16339;48.748;2.222;2023-07-16T09:07:47;29.85;;;5.97;;
29344;SDS011;16339;48.748;2.222;2023-07-16T09:10:16;19.23;;;5.32;;
29344;SDS011;16339;48.748;2.222;2023-07-16T09:12:47;17.98;;;5.38;;
29344;SDS011;16339;48.748;2.222;2023-07-16T09:15:17;21.00;;;5.03;;
29344;SDS011;16339;48.748;2.222;2023-07-16T09:17:49;15.83;;;4.73;;
29344;SDS011;16339;48.748;2.222;2023-07-16T09:20:18;17.10;;;4.95;;
29344;SDS011;16339;48.748;2.222;2023-07-16T09:22:48;22.45;;;6.05;;
29344;SDS011;16339;48.748;2.222;2023-07-16T09:25:18;20.20;;;5.68;;
29344;SDS011;16339;48.748;2.222;2023-07-16T09:27:48;19.38;;;5.30;;
29344;SDS011;16339;48.748;2.222;2023-07-16T09:30:19;17.23;;;5.30;;
29344;SDS011;16339;48.748;2.222;2023-07-16T09:37:48;19.85;;;5.45;;
29344;SDS011;16339;48.748;2.222;2023-07-16T09:40:18;21.42;;;5.55;;
29344;SDS011;16339;48.748;2.222;2023-07-16T09:42:48;30.33;;;6.47;;
29344;SDS011;16339;48.748;2.222;2023-07-16T09:45:18;19.42;;;5.85;;
29344;SDS011;16339;48.748;2.222;2023-07-16T09:47:47;19.88;;;5.85;;
29344;SDS011;16339;48.748;2.222;2023-07-16T09:50:18;19.00;;;5.65;;
29344;SDS011;16339;48.748;2.222;2023-07-16T09:52:48;20.85;;;5.72;;
29344;SDS011;16339;48.748;2.222;2023-07-16T09:55:18;18.95;;;5.53;;
29344;SDS011;16339;48.748;2.222;2023-07-16T09:57:50;19.23;;;6.25;;
29344;SDS011;16339;48.748;2.222;2023-07-16T10:00:21;18.48;;;6.05;;
29344;SDS011;16339;48.748;2.222;2023-07-16T10:02:52;16.67;;;5.53;;
29344;SDS011;16339;48.748;2.222;2023-07-16T10:05:26;20.35;;;5.93;;
29344;SDS011;16339;48.748;2.222;2023-07-16T10:07:56;29.73;;;5.75;;
29344;SDS011;16339;48.748;2.222;2023-07-16T10:17:32;21.77;;;5.97;;
29344;SDS011;16339;48.748;2.222;2023-07-16T10:20:06;19.92;;;5.95;;
29344;SDS011;16339;48.748;2.222;2023-07-16T10:22:46;26.40;;;5.45;;
29344;SDS011;16339;48.748;2.222;2023-07-16T10:25:21;16.75;;;5.13;;
29344;SDS011;16339;48.748;2.222;2023-07-16T10:27:51;19.60;;;5.05;;
29344;SDS011;16339;48.748;2.222;2023-07-16T10:30:21;21.10;;;5.18;;
29344;SDS011;16339;48.748;2.222;2023-07-16T10:32:50;17.65;;;4.78;;
29344;SDS011;16339;48.748;2.222;2023-07-16T10:37:54;22.70;;;4.60;;
29344;SDS011;16339;48.748;2.222;2023-07-16T10:40:26;20.35;;;4.68;;
29344;SDS011;16339;48.748;2.222;2023-07-16T10:42:56;19.20;;;4.63;;
29344;SDS011;16339;48.748;2.222;2023-07-16T10:45:25;18.98;;;4.90;;
29344;SDS011;16339;48.748;2.222;2023-07-16T10:48:23;13.25;;;4.40;;
29344;SDS011;16339;48.748;2.222;2023-07-16T10:51:25;15.25;;;4.38;;
29344;SDS011;16339;48.748;2.222;2023-07-16T10:54:00;13.80;;;4.72;;
29344;SDS011;16339;48.748;2.222;2023-07-16T10:56:30;13.02;;;4.40;;
29344;SDS011;16339;48.748;2.222;2023-07-16T10:59:09;20.05;;;4.82;;
29344;SDS011;16339;48.748;2.222;2023-07-16T11:01:38;15.38;;;4.25;;
29344;SDS011;16339;48.748;2.222;2023-07-16T11:04:08;16.23;;;4.78;;
29344;SDS011;16339;48.748;2.222;2023-07-16T11:06:44;13.63;;;4.53;;
29344;SDS011;16339;48.748;2.222;2023-07-16T11:09:19;13.60;;;4.85;;
29344;SDS011;16339;48.748;2.222;2023-07-16T11:14:41;12.90;;;4.72;;
29344;SDS011;16339;48.748;2.222;2023-07-16T11:17:34;11.90;;;4.50;;
29344;SDS011;16339;48.748;2.222;2023-07-16T11:20:07;9.73;;;4.05;;
29344;SDS011;16339;48.748;2.222;2023-07-16T11:22:53;12.38;;;4.75;;
29344;SDS011;16339;48.748;2.222;2023-07-16T11:25:48;12.73;;;4.32;;
29344;SDS011;16339;48.748;2.222;2023-07-16T11:28:20;23.05;;;4.63;;
29344;SDS011;16339;48.748;2.222;2023-07-16T11:30:48;12.02;;;4.85;;
29344;SDS011;16339;48.748;2.222;2023-07-16T11:33:17;11.75;;;4.47;;
29344;SDS011;16339;48.748;2.222;2023-07-16T11:35:46;12.10;;;5.15;;
29344;SDS011;16339;48.748;2.222;2023-07-16T11:38:19;15.82;;;4.82;;
29344;SDS011;16339;48.748;2.222;2023-07-16T11:40:51;13.38;;;5.10;;
29344;SDS011;16339;48.748;2.222;2023-07-16T11:43:25;9.38;;;4.68;;
29344;SDS011;16339;48.748;2.222;2023-07-16T11:45:54;10.02;;;4.60;;
29344;SDS011;16339;48.748;2.222;2023-07-16T11:48:22;11.88;;;4.97;;
29344;SDS011;16339;48.748;2.222;2023-07-16T11:50:53;15.67;;;5.30;;
29344;SDS011;16339;48.748;2.222;2023-07-16T11:53:22;16.08;;;4.85;;
29344;SDS011;16339;48.748;2.222;2023-07-16T11:55:57;12.68;;;4.63;;
29344;SDS011;16339;48.748;2.222;2023-07-16T11:58:30;15.45;;;5.40;;
29344;SDS011;16339;48.748;2.222;2023-07-16T12:01:00;9.75;;;4.63;;
29344;SDS011;16339;48.748;2.222;2023-07-16T12:03:29;13.88;;;5.05;;
29344;SDS011;16339;48.748;2.222;2023-07-16T12:05:58;14.32;;;4.75;;
29344;SDS011;16339;48.748;2.222;2023-07-16T12:08:27;13.07;;;5.30;;
29344;SDS011;16339;48.748;2.222;2023-07-16T12:10:58;15.23;;;5.32;;
29344;SDS011;16339;48.748;2.222;2023-07-16T12:13:29;16.98;;;5.22;;
29344;SDS011;16339;48.748;2.222;2023-07-16T12:18:27;16.13;;;5.05;;
29344;SDS011;16339;48.748;2.222;2023-07-16T12:20:56;11.57;;;5.45;;
29344;SDS011;16339;48.748;2.222;2023-07-16T12:23:25;10.13;;;5.20;;
29344;SDS011;16339;48.748;2.222;2023-07-16T12:25:53;11.35;;;5.20;;
29344;SDS011;16339;48.748;2.222;2023-07-16T12:28:25;16.30;;;5.07;;
29344;SDS011;16339;48.748;2.222;2023-07-16T12:30:53;11.88;;;5.05;;
29344;SDS011;16339;48.748;2.222;2023-07-16T12:33:24;11.57;;;5.00;;
29344;SDS011;16339;48.748;2.222;2023-07-16T12:35:52;15.25;;;5.07;;
29344;SDS011;16339;48.748;2.222;2023-07-16T12:38:23;11.70;;;5.05;;
29344;SDS011;16339;48.748;2.222;2023-07-16T12:40:52;17.95;;;5.68;;
29344;SDS011;16339;48.748;2.222;2023-07-16T12:43:23;23.60;;;5.45;;
29344;SDS011;16339;48.748;2.222;2023-07-16T12:45:59;14.23;;;5.43;;
29344;SDS011;16339;48.748;2.222;2023-07-16T12:48:28;12.18;;;5.40;;
29344;SDS011;16339;48.748;2.222;2023-07-16T12:57:26;11.40;;;5.00;;
29344;SDS011;16339;48.748;2.222;2023-07-16T13:03:05;11.30;;;4.85;;
29344;SDS011;16339;48.748;2.222;2023-07-16T13:05:42;10.77;;;4.43;;
29344;SDS011;16339;48.748;2.222;2023-07-16T13:08:15;12.63;;;5.23;;
29344;SDS011;16339;48.748;2.222;2023-07-16T13:10:44;12.43;;;4.70;;
29344;SDS011;16339;48.748;2.222;2023-07-16T13:13:13;9.30;;;5.05;;
29344;SDS011;16339;48.748;2.222;2023-07-16T13:15:49;14.20;;;5.25;;
29344;SDS011;16339;48.748;2.222;2023-07-16T13:18:20;10.02;;;4.93;;
29344;SDS011;16339;48.748;2.222;2023-07-16T13:20:48;9.48;;;4.80;;
29344;SDS011;16339;48.748;2.222;2023-07-16T13:23:17;10.55;;;4.00;;
29344;SDS011;16339;48.748;2.222;2023-07-16T13:28:17;13.02;;;4.53;;
29344;SDS011;16339;48.748;2.222;2023-07-16T13:30:53;15.98;;;4.32;;
29344;SDS011;16339;48.748;2.222;2023-07-16T13:39:48;14.70;;;5.32;;
29344;SDS011;16339;48.748;2.222;2023-07-16T14:11:52;9.88;;;4.57;;
29344;SDS011;16339;48.748;2.222;2023-07-16T14:14:51;23.48;;;5.60;;
29344;SDS011;16339;48.748;2.222;2023-07-16T14:17:19;13.55;;;4.55;;
29344;SDS011;16339;48.748;2.222;2023-07-16T14:19:48;12.60;;;4.28;;
29344;SDS011;16339;48.748;2.222;2023-07-16T14:22:18;14.63;;;4.05;;
29344;SDS011;16339;48.748;2.222;2023-07-16T14:24:49;11.55;;;4.63;;
29344;SDS011;16339;48.748;2.222;2023-07-16T14:27:21;14.80;;;4.60;;
29344;SDS011;16339;48.748;2.222;2023-07-16T14:29:50;9.77;;;4.10;;
29344;SDS011;16339;48.748;2.222;2023-07-16T14:32:19;12.63;;;5.18;;
29344;SDS011;16339;48.748;2.222;2023-07-16T14:34:47;9.27;;;4.47;;
29344;SDS011;16339;48.748;2.222;2023-07-16T14:37:16;14.25;;;4.38;;
29344;SDS011;16339;48.748;2.222;2023-07-16T14:39:45;8.55;;;4.38;;
29344;SDS011;16339;48.748;2.222;2023-07-16T14:42:14;10.65;;;4.05;;
29344;SDS011;16339;48.748;2.222;2023-07-16T14:44:45;13.13;;;4.78;;
29344;SDS011;16339;48.748;2.222;2023-07-16T14:47:14;8.60;;;4.20;;
29344;SDS011;16339;48.748;2.222;2023-07-16T14:49:43;17.58;;;4.82;;
29344;SDS011;16339;48.748;2.222;2023-07-16T14:52:11;12.73;;;4.70;;
29344;SDS011;16339;48.748;2.222;2023-07-16T14:54:40;17.48;;;4.30;;
29344;SDS011;16339;48.748;2.222;2023-07-16T14:57:09;11.77;;;4.70;;
29344;SDS011;16339;48.748;2.222;2023-07-16T14:59:38;14.18;;;4.53;;
29344;SDS011;16339;48.748;2.222;2023-07-16T15:02:09;12.82;;;4.57;;
29344;SDS011;16339;48.748;2.222;2023-07-16T15:04:38;11.13;;;4.10;;
29344;SDS011;16339;48.748;2.222;2023-07-16T15:07:08;13.07;;;4.50;;
29344;SDS011;16339;48.748;2.222;2023-07-16T15:09:37;12.55;;;4.85;;
29344;SDS011;16339;48.748;2.222;2023-07-16T15:12:07;14.63;;;4.95;;
29344;SDS011;16339;48.748;2.222;2023-07-16T15:14:36;9.25;;;4.57;;
29344;SDS011;16339;48.748;2.222;2023-07-16T15:17:08;12.73;;;4.50;;
29344;SDS011;16339;48.748;2.222;2023-07-16T15:19:39;9.10;;;4.43;;
29344;SDS011;16339;48.748;2.222;2023-07-16T15:22:08;10.20;;;4.55;;
29344;SDS011;16339;48.748;2.222;2023-07-16T15:24:37;13.23;;;4.40;;
29344;SDS011;16339;48.748;2.222;2023-07-16T15:27:11;10.65;;;4.13;;
29344;SDS011;16339;48.748;2.222;2023-07-16T15:29:41;8.07;;;3.95;;
29344;SDS011;16339;48.748;2.222;2023-07-16T15:35:23;13.23;;;4.30;;
29344;SDS011;16339;48.748;2.222;2023-07-16T15:50:14;13.30;;;4.50;;
29344;SDS011;16339;48.748;2.222;2023-07-16T16:19:47;9.70;;;3.17;;
29344;SDS011;16339;48.748;2.222;2023-07-16T16:25:13;13.65;;;3.83;;
29344;SDS011;16339;48.748;2.222;2023-07-16T16:27:54;9.80;;;3.22;;
29344;SDS011;16339;48.748;2.222;2023-07-16T16:30:33;8.95;;;3.40;;
29344;SDS011;16339;48.748;2.222;2023-07-16T16:36:17;9.10;;;2.78;;
29344;SDS011;16339;48.748;2.222;2023-07-16T16:38:53;10.13;;;3.20;;
29344;SDS011;16339;48.748;2.222;2023-07-16T16:41:25;14.77;;;3.00;;
29344;SDS011;16339;48.748;2.222;2023-07-16T16:43:57;11.20;;;3.10;;
29344;SDS011;16339;48.748;2.222;2023-07-16T16:46:48;7.43;;;3.10;;
29344;SDS011;16339;48.748;2.222;2023-07-16T16:49:18;5.88;;;2.38;;
29344;SDS011;16339;48.748;2.222;2023-07-16T16:52:03;12.65;;;2.47;;
29344;SDS011;16339;48.748;2.222;2023-07-16T16:54:33;6.38;;;2.60;;
29344;SDS011;16339;48.748;2.222;2023-07-16T16:57:02;7.65;;;2.55;;
29344;SDS011;16339;48.748;2.222;2023-07-16T17:13:00;8.23;;;3.00;;
29344;SDS011;16339;48.748;2.222;2023-07-16T17:15:51;10.20;;;3.10;;
29344;SDS011;16339;48.748;2.222;2023-07-16T17:18:26;13.32;;;3.20;;
29344;SDS011;16339;48.748;2.222;2023-07-16T17:21:04;8.90;;;3.13;;
29344;SDS011;16339;48.748;2.222;2023-07-16T17:23:41;10.10;;;3.33;;
29344;SDS011;16339;48.748;2.222;2023-07-16T17:26:19;6.40;;;2.72;;
29344;SDS011;16339;48.748;2.222;2023-07-16T17:28:50;12.45;;;3.55;;
29344;SDS011;16339;48.748;2.222;2023-07-16T17:31:19;9.18;;;3.15;;
29344;SDS011;16339;48.748;2.222;2023-07-16T17:33:49;6.68;;;3.03;;
29344;SDS011;16339;48.748;2.222;2023-07-16T17:36:25;15.60;;;3.35;;
29344;SDS011;16339;48.748;2.222;2023-07-16T17:38:55;10.48;;;3.30;;
29344;SDS011;16339;48.748;2.222;2023-07-16T17:41:29;12.50;;;3.17;;
29344;SDS011;16339;48.748;2.222;2023-07-16T17:44:04;11.82;;;3.10;;
29344;SDS011;16339;48.748;2.222;2023-07-16T17:46:36;8.07;;;2.65;;